sensor_id;sensor_type;location;lat;lon;timestamp;P1;durP1;ratioP1;P2;durP2;ratioP2
24389;SDS011;12510;56.468;-3.004;2023-04-27T00:01:45;4.63;;;1.92;;
24389;SDS011;12510;56.468;-3.004;2023-04-27T00:04:11;5.57;;;2.53;;
24389;SDS011;12510;56.468;-3.004;2023-04-27T00:06:39;4.43;;;1.98;;
24389;SDS011;12510;56.468;-3.004;2023-04-27T00:09:05;4.00;;;2.38;;
24389;SDS011;12510;56.468;-3.004;2023-04-27T00:11:31;8.00;;;1.83;;
24389;SDS011;12510;56.468;-3.004;2023-04-27T00:13:58;4.70;;;2.38;;
24389;SDS011;12510;56.468;-3.004;2023-04-27T00:16:25;3.67;;;2.00;;
24389;SDS011;12510;56.468;-3.004;2023-04-27T00:18:51;6.53;;;2.35;;
24389;SDS011;12510;56.468;-3.004;2023-04-27T00:21:17;5.88;;;3.05;;
24389;SDS011;12510;56.468;-3.004;2023-04-27T00:23:44;4.30;;;2.17;;
24389;SDS011;12510;56.468;-3.004;2023-04-27T00:26:11;4.10;;;2.00;;
24389;SDS011;12510;56.468;-3.004;2023-04-27T00:28:38;7.63;;;2.58;;
24389;SDS011;12510;56.468;-3.004;2023-04-27T00:31:05;4.97;;;2.15;;
24389;SDS011;12510;56.468;-3.004;2023-04-27T00:33:31;5.10;;;1.80;;
24389;SDS011;12510;56.468;-3.004;2023-04-27T00:35:58;6.38;;;2.20;;
24389;SDS011;12510;56.468;-3.004;2023-04-27T00:38:26;5.38;;;1.90;;
24389;SDS011;12510;56.468;-3.004;2023-04-27T00:41:01;4.95;;;2.13;;
24389;SDS011;12510;56.468;-3.004;2023-04-27T00:43:28;3.88;;;2.30;;
24389;SDS011;12510;56.468;-3.004;2023-04-27T00:45:54;3.63;;;1.83;;
24389;SDS011;12510;56.468;-3.004;2023-04-27T00:48:21;5.07;;;2.50;;
24389;SDS011;12510;56.468;-3.004;2023-04-27T00:50:48;4.07;;;2.00;;
24389;SDS011;12510;56.468;-3.004;2023-04-27T00:53:14;5.50;;;2.38;;
24389;SDS011;12510;56.468;-3.004;2023-04-27T00:55:42;6.07;;;2.35;;
24389;SDS011;12510;56.468;-3.004;2023-04-27T00:58:08;3.03;;;1.90;;
24389;SDS011;12510;56.468;-3.004;2023-04-27T01:00:35;5.32;;;1.95;;
24389;SDS011;12510;56.468;-3.004;2023-04-27T01:03:02;6.18;;;2.72;;
24389;SDS011;12510;56.468;-3.004;2023-04-27T01:05:29;6.72;;;2.33;;
24389;SDS011;12510;56.468;-3.004;2023-04-27T01:07:55;5.88;;;2.92;;
24389;SDS011;12510;56.468;-3.004;2023-04-27T01:10:22;3.25;;;1.85;;
24389;SDS011;12510;56.468;-3.004;2023-04-27T01:12:48;4.32;;;2.10;;
24389;SDS011;12510;56.468;-3.004;2023-04-27T01:15:15;3.55;;;2.08;;
24389;SDS011;12510;56.468;-3.004;2023-04-27T01:17:41;4.50;;;2.28;;
24389;SDS011;12510;56.468;-3.004;2023-04-27T01:20:08;2.53;;;1.95;;
24389;SDS011;12510;56.468;-3.004;2023-04-27T01:22:35;5.55;;;1.98;;
24389;SDS011;12510;56.468;-3.004;2023-04-27T01:25:02;4.50;;;2.55;;
24389;SDS011;12510;56.468;-3.004;2023-04-27T01:27:30;3.05;;;2.30;;
24389;SDS011;12510;56.468;-3.004;2023-04-27T01:29:57;4.88;;;2.28;;
24389;SDS011;12510;56.468;-3.004;2023-04-27T01:32:23;6.32;;;2.65;;
24389;SDS011;12510;56.468;-3.004;2023-04-27T01:34:52;4.57;;;2.35;;
24389;SDS011;12510;56.468;-3.004;2023-04-27T01:37:18;6.53;;;2.42;;
24389;SDS011;12510;56.468;-3.004;2023-04-27T01:39:45;4.40;;;2.47;;
24389;SDS011;12510;56.468;-3.004;2023-04-27T01:42:11;6.20;;;2.40;;
24389;SDS011;12510;56.468;-3.004;2023-04-27T01:44:39;3.50;;;2.33;;
24389;SDS011;12510;56.468;-3.004;2023-04-27T01:47:05;6.80;;;2.58;;
24389;SDS011;12510;56.468;-3.004;2023-04-27T01:49:33;8.70;;;2.55;;
24389;SDS011;12510;56.468;-3.004;2023-04-27T01:51:59;4.95;;;2.20;;
24389;SDS011;12510;56.468;-3.004;2023-04-27T01:54:26;3.28;;;2.28;;
24389;SDS011;12510;56.468;-3.004;2023-04-27T01:56:52;5.63;;;2.70;;
24389;SDS011;12510;56.468;-3.004;2023-04-27T01:59:18;6.05;;;2.33;;
24389;SDS011;12510;56.468;-3.004;2023-04-27T02:01:45;2.72;;;2.25;;
24389;SDS011;12510;56.468;-3.004;2023-04-27T02:04:12;4.53;;;2.20;;
24389;SDS011;12510;56.468;-3.004;2023-04-27T02:06:38;6.78;;;2.83;;
24389;SDS011;12510;56.468;-3.004;2023-04-27T02:09:06;4.95;;;2.08;;
24389;SDS011;12510;56.468;-3.004;2023-04-27T02:11:32;10.15;;;3.85;;
24389;SDS011;12510;56.468;-3.004;2023-04-27T02:13:58;4.57;;;2.58;;
24389;SDS011;12510;56.468;-3.004;2023-04-27T02:16:33;5.50;;;2.25;;
24389;SDS011;12510;56.468;-3.004;2023-04-27T02:19:00;3.63;;;2.47;;
24389;SDS011;12510;56.468;-3.004;2023-04-27T02:21:28;7.40;;;2.30;;
24389;SDS011;12510;56.468;-3.004;2023-04-27T02:23:55;5.22;;;1.90;;
24389;SDS011;12510;56.468;-3.004;2023-04-27T02:26:22;3.78;;;2.53;;
24389;SDS011;12510;56.468;-3.004;2023-04-27T02:28:54;3.80;;;2.20;;
24389;SDS011;12510;56.468;-3.004;2023-04-27T02:33:50;4.25;;;2.78;;
24389;SDS011;12510;56.468;-3.004;2023-04-27T02:36:17;7.05;;;2.20;;
24389;SDS011;12510;56.468;-3.004;2023-04-27T02:38:43;5.20;;;2.70;;
24389;SDS011;12510;56.468;-3.004;2023-04-27T02:41:09;6.47;;;2.72;;
24389;SDS011;12510;56.468;-3.004;2023-04-27T02:43:36;6.20;;;2.50;;
24389;SDS011;12510;56.468;-3.004;2023-04-27T02:46:04;7.07;;;2.60;;
24389;SDS011;12510;56.468;-3.004;2023-04-27T02:48:31;4.95;;;2.50;;
24389;SDS011;12510;56.468;-3.004;2023-04-27T02:50:58;5.03;;;2.72;;
24389;SDS011;12510;56.468;-3.004;2023-04-27T02:53:27;5.13;;;2.97;;
24389;SDS011;12510;56.468;-3.004;2023-04-27T02:55:54;3.83;;;2.70;;
24389;SDS011;12510;56.468;-3.004;2023-04-27T02:58:20;3.42;;;2.03;;
24389;SDS011;12510;56.468;-3.004;2023-04-27T03:00:52;8.63;;;2.92;;
24389;SDS011;12510;56.468;-3.004;2023-04-27T03:03:19;8.70;;;2.33;;
24389;SDS011;12510;56.468;-3.004;2023-04-27T03:05:46;4.38;;;2.90;;
24389;SDS011;12510;56.468;-3.004;2023-04-27T03:08:12;5.85;;;3.25;;
24389;SDS011;12510;56.468;-3.004;2023-04-27T03:10:38;3.67;;;2.38;;
24389;SDS011;12510;56.468;-3.004;2023-04-27T03:13:05;3.70;;;2.53;;
24389;SDS011;12510;56.468;-3.004;2023-04-27T03:15:31;4.05;;;2.55;;
24389;SDS011;12510;56.468;-3.004;2023-04-27T03:17:58;3.72;;;2.03;;
24389;SDS011;12510;56.468;-3.004;2023-04-27T03:20:24;5.32;;;2.25;;
24389;SDS011;12510;56.468;-3.004;2023-04-27T03:22:52;3.83;;;2.70;;
24389;SDS011;12510;56.468;-3.004;2023-04-27T03:25:19;6.00;;;2.47;;
24389;SDS011;12510;56.468;-3.004;2023-04-27T03:27:46;4.45;;;2.72;;
24389;SDS011;12510;56.468;-3.004;2023-04-27T03:30:13;4.53;;;2.30;;
24389;SDS011;12510;56.468;-3.004;2023-04-27T03:32:39;5.65;;;2.72;;
24389;SDS011;12510;56.468;-3.004;2023-04-27T03:35:06;4.40;;;3.10;;
24389;SDS011;12510;56.468;-3.004;2023-04-27T03:37:34;3.78;;;2.25;;
24389;SDS011;12510;56.468;-3.004;2023-04-27T03:40:00;4.80;;;2.53;;
24389;SDS011;12510;56.468;-3.004;2023-04-27T03:42:27;8.07;;;3.17;;
24389;SDS011;12510;56.468;-3.004;2023-04-27T03:44:54;5.60;;;2.75;;
24389;SDS011;12510;56.468;-3.004;2023-04-27T03:47:21;5.32;;;2.38;;
24389;SDS011;12510;56.468;-3.004;2023-04-27T03:49:47;3.28;;;2.22;;
24389;SDS011;12510;56.468;-3.004;2023-04-27T03:52:15;4.40;;;3.08;;
24389;SDS011;12510;56.468;-3.004;2023-04-27T03:54:41;5.57;;;3.13;;
24389;SDS011;12510;56.468;-3.004;2023-04-27T03:57:08;4.93;;;2.47;;
24389;SDS011;12510;56.468;-3.004;2023-04-27T03:59:35;5.57;;;3.05;;
24389;SDS011;12510;56.468;-3.004;2023-04-27T04:02:02;4.25;;;2.65;;
24389;SDS011;12510;56.468;-3.004;2023-04-27T04:04:30;3.38;;;2.40;;
24389;SDS011;12510;56.468;-3.004;2023-04-27T04:06:57;3.90;;;2.47;;
24389;SDS011;12510;56.468;-3.004;2023-04-27T04:09:24;7.18;;;2.55;;
24389;SDS011;12510;56.468;-3.004;2023-04-27T04:11:51;13.90;;;4.13;;
24389;SDS011;12510;56.468;-3.004;2023-04-27T04:14:18;5.40;;;2.70;;
24389;SDS011;12510;56.468;-3.004;2023-04-27T04:16:44;4.30;;;2.47;;
24389;SDS011;12510;56.468;-3.004;2023-04-27T04:19:12;4.88;;;2.33;;
24389;SDS011;12510;56.468;-3.004;2023-04-27T04:21:38;5.05;;;2.33;;
24389;SDS011;12510;56.468;-3.004;2023-04-27T04:24:05;3.10;;;2.53;;
24389;SDS011;12510;56.468;-3.004;2023-04-27T04:26:32;5.65;;;2.83;;
24389;SDS011;12510;56.468;-3.004;2023-04-27T04:28:59;7.47;;;2.35;;
24389;SDS011;12510;56.468;-3.004;2023-04-27T04:31:26;6.57;;;2.97;;
24389;SDS011;12510;56.468;-3.004;2023-04-27T04:33:52;6.05;;;2.03;;
24389;SDS011;12510;56.468;-3.004;2023-04-27T04:36:20;4.57;;;2.97;;
24389;SDS011;12510;56.468;-3.004;2023-04-27T04:38:49;7.93;;;3.17;;
24389;SDS011;12510;56.468;-3.004;2023-04-27T04:41:16;4.57;;;2.55;;
24389;SDS011;12510;56.468;-3.004;2023-04-27T04:43:44;7.03;;;2.53;;
24389;SDS011;12510;56.468;-3.004;2023-04-27T04:46:10;4.00;;;2.90;;
24389;SDS011;12510;56.468;-3.004;2023-04-27T04:48:37;6.65;;;3.08;;
24389;SDS011;12510;56.468;-3.004;2023-04-27T04:51:04;7.80;;;3.10;;
24389;SDS011;12510;56.468;-3.004;2023-04-27T04:53:32;6.95;;;2.92;;
24389;SDS011;12510;56.468;-3.004;2023-04-27T04:56:06;7.18;;;3.63;;
24389;SDS011;12510;56.468;-3.004;2023-04-27T04:58:34;4.95;;;2.85;;
24389;SDS011;12510;56.468;-3.004;2023-04-27T05:01:00;7.25;;;2.85;;
24389;SDS011;12510;56.468;-3.004;2023-04-27T05:03:26;5.28;;;2.85;;
24389;SDS011;12510;56.468;-3.004;2023-04-27T05:05:53;4.75;;;2.72;;
24389;SDS011;12510;56.468;-3.004;2023-04-27T05:08:19;8.73;;;3.42;;
24389;SDS011;12510;56.468;-3.004;2023-04-27T05:10:51;8.40;;;3.42;;
24389;SDS011;12510;56.468;-3.004;2023-04-27T05:13:19;6.90;;;2.95;;
24389;SDS011;12510;56.468;-3.004;2023-04-27T05:15:46;8.60;;;3.20;;
24389;SDS011;12510;56.468;-3.004;2023-04-27T05:18:12;7.25;;;4.22;;
24389;SDS011;12510;56.468;-3.004;2023-04-27T05:20:39;3.05;;;2.83;;
24389;SDS011;12510;56.468;-3.004;2023-04-27T05:23:05;7.57;;;4.45;;
24389;SDS011;12510;56.468;-3.004;2023-04-27T05:25:32;7.97;;;3.78;;
24389;SDS011;12510;56.468;-3.004;2023-04-27T05:27:59;5.78;;;3.38;;
24389;SDS011;12510;56.468;-3.004;2023-04-27T05:30:25;8.73;;;3.42;;
24389;SDS011;12510;56.468;-3.004;2023-04-27T05:32:52;3.72;;;2.75;;
24389;SDS011;12510;56.468;-3.004;2023-04-27T05:35:18;7.47;;;3.35;;
24389;SDS011;12510;56.468;-3.004;2023-04-27T05:37:45;8.15;;;3.90;;
24389;SDS011;12510;56.468;-3.004;2023-04-27T05:40:13;8.13;;;3.65;;
24389;SDS011;12510;56.468;-3.004;2023-04-27T05:42:40;8.13;;;4.30;;
24389;SDS011;12510;56.468;-3.004;2023-04-27T05:45:06;6.22;;;3.40;;
24389;SDS011;12510;56.468;-3.004;2023-04-27T05:47:33;7.60;;;3.50;;
24389;SDS011;12510;56.468;-3.004;2023-04-27T05:49:59;6.05;;;4.22;;
24389;SDS011;12510;56.468;-3.004;2023-04-27T05:52:26;9.23;;;3.58;;
24389;SDS011;12510;56.468;-3.004;2023-04-27T05:54:56;7.07;;;3.92;;
24389;SDS011;12510;56.468;-3.004;2023-04-27T05:57:26;12.85;;;3.13;;
24389;SDS011;12510;56.468;-3.004;2023-04-27T05:59:52;8.55;;;3.50;;
24389;SDS011;12510;56.468;-3.004;2023-04-27T06:02:18;6.32;;;3.17;;
24389;SDS011;12510;56.468;-3.004;2023-04-27T06:04:45;4.85;;;2.80;;
24389;SDS011;12510;56.468;-3.004;2023-04-27T06:07:12;7.95;;;3.17;;
24389;SDS011;12510;56.468;-3.004;2023-04-27T06:09:39;4.88;;;2.80;;
24389;SDS011;12510;56.468;-3.004;2023-04-27T06:12:07;5.13;;;3.15;;
24389;SDS011;12510;56.468;-3.004;2023-04-27T06:14:34;8.75;;;2.60;;
24389;SDS011;12510;56.468;-3.004;2023-04-27T06:17:02;3.92;;;2.92;;
24389;SDS011;12510;56.468;-3.004;2023-04-27T06:19:29;13.15;;;3.30;;
24389;SDS011;12510;56.468;-3.004;2023-04-27T06:21:57;8.13;;;2.92;;
24389;SDS011;12510;56.468;-3.004;2023-04-27T06:24:24;14.60;;;4.13;;
24389;SDS011;12510;56.468;-3.004;2023-04-27T06:26:50;8.57;;;3.20;;
24389;SDS011;12510;56.468;-3.004;2023-04-27T06:29:16;7.93;;;3.13;;
24389;SDS011;12510;56.468;-3.004;2023-04-27T06:31:43;9.52;;;3.55;;
24389;SDS011;12510;56.468;-3.004;2023-04-27T06:34:09;6.75;;;3.80;;
24389;SDS011;12510;56.468;-3.004;2023-04-27T06:36:36;5.85;;;2.90;;
24389;SDS011;12510;56.468;-3.004;2023-04-27T06:39:02;7.03;;;3.72;;
24389;SDS011;12510;56.468;-3.004;2023-04-27T06:41:29;9.95;;;3.75;;
24389;SDS011;12510;56.468;-3.004;2023-04-27T06:43:55;13.25;;;3.70;;
24389;SDS011;12510;56.468;-3.004;2023-04-27T06:46:22;5.30;;;3.08;;
24389;SDS011;12510;56.468;-3.004;2023-04-27T06:48:48;9.98;;;3.95;;
24389;SDS011;12510;56.468;-3.004;2023-04-27T06:51:14;12.10;;;3.88;;
24389;SDS011;12510;56.468;-3.004;2023-04-27T06:53:41;9.75;;;3.47;;
24389;SDS011;12510;56.468;-3.004;2023-04-27T06:56:09;9.02;;;3.50;;
24389;SDS011;12510;56.468;-3.004;2023-04-27T06:58:36;7.80;;;3.60;;
24389;SDS011;12510;56.468;-3.004;2023-04-27T07:01:03;5.10;;;3.40;;
24389;SDS011;12510;56.468;-3.004;2023-04-27T07:03:33;9.02;;;3.53;;
24389;SDS011;12510;56.468;-3.004;2023-04-27T07:06:00;7.18;;;3.45;;
24389;SDS011;12510;56.468;-3.004;2023-04-27T07:08:27;7.80;;;3.40;;
24389;SDS011;12510;56.468;-3.004;2023-04-27T07:10:53;6.25;;;3.50;;
24389;SDS011;12510;56.468;-3.004;2023-04-27T07:13:21;9.52;;;4.43;;
24389;SDS011;12510;56.468;-3.004;2023-04-27T07:15:47;5.53;;;3.60;;
24389;SDS011;12510;56.468;-3.004;2023-04-27T07:18:13;7.18;;;3.67;;
24389;SDS011;12510;56.468;-3.004;2023-04-27T07:20:40;9.05;;;4.22;;
24389;SDS011;12510;56.468;-3.004;2023-04-27T07:23:07;8.32;;;3.70;;
24389;SDS011;12510;56.468;-3.004;2023-04-27T07:25:33;7.95;;;4.13;;
24389;SDS011;12510;56.468;-3.004;2023-04-27T07:28:00;7.40;;;3.63;;
24389;SDS011;12510;56.468;-3.004;2023-04-27T07:30:26;6.80;;;4.03;;
24389;SDS011;12510;56.468;-3.004;2023-04-27T07:32:55;5.32;;;3.22;;
24389;SDS011;12510;56.468;-3.004;2023-04-27T07:35:22;6.75;;;3.45;;
24389;SDS011;12510;56.468;-3.004;2023-04-27T07:37:49;6.65;;;3.75;;
24389;SDS011;12510;56.468;-3.004;2023-04-27T07:40:16;6.60;;;3.45;;
24389;SDS011;12510;56.468;-3.004;2023-04-27T07:42:43;5.80;;;3.15;;
24389;SDS011;12510;56.468;-3.004;2023-04-27T07:45:11;9.82;;;3.70;;
24389;SDS011;12510;56.468;-3.004;2023-04-27T07:47:37;13.35;;;4.18;;
24389;SDS011;12510;56.468;-3.004;2023-04-27T07:50:07;10.35;;;4.22;;
24389;SDS011;12510;56.468;-3.004;2023-04-27T07:52:34;7.32;;;3.92;;
24389;SDS011;12510;56.468;-3.004;2023-04-27T07:55:00;7.15;;;3.70;;
24389;SDS011;12510;56.468;-3.004;2023-04-27T07:57:28;10.07;;;3.53;;
24389;SDS011;12510;56.468;-3.004;2023-04-27T07:59:55;7.03;;;3.58;;
24389;SDS011;12510;56.468;-3.004;2023-04-27T08:02:22;7.10;;;4.63;;
24389;SDS011;12510;56.468;-3.004;2023-04-27T08:04:48;8.32;;;4.93;;
24389;SDS011;12510;56.468;-3.004;2023-04-27T08:07:15;7.68;;;4.47;;
24389;SDS011;12510;56.468;-3.004;2023-04-27T08:09:42;10.27;;;3.70;;
24389;SDS011;12510;56.468;-3.004;2023-04-27T08:12:09;12.50;;;4.40;;
24389;SDS011;12510;56.468;-3.004;2023-04-27T08:14:35;10.20;;;4.40;;
24389;SDS011;12510;56.468;-3.004;2023-04-27T08:17:02;6.53;;;3.90;;
24389;SDS011;12510;56.468;-3.004;2023-04-27T08:19:28;10.55;;;4.18;;
24389;SDS011;12510;56.468;-3.004;2023-04-27T08:21:54;14.00;;;4.75;;
24389;SDS011;12510;56.468;-3.004;2023-04-27T08:24:21;10.60;;;4.20;;
24389;SDS011;12510;56.468;-3.004;2023-04-27T08:26:47;7.25;;;4.20;;
24389;SDS011;12510;56.468;-3.004;2023-04-27T08:29:14;13.00;;;4.22;;
24389;SDS011;12510;56.468;-3.004;2023-04-27T08:31:40;15.18;;;5.55;;
24389;SDS011;12510;56.468;-3.004;2023-04-27T08:34:06;9.50;;;3.90;;
24389;SDS011;12510;56.468;-3.004;2023-04-27T08:36:33;11.73;;;5.53;;
24389;SDS011;12510;56.468;-3.004;2023-04-27T08:38:59;8.70;;;3.72;;
24389;SDS011;12510;56.468;-3.004;2023-04-27T08:41:26;10.75;;;3.58;;
24389;SDS011;12510;56.468;-3.004;2023-04-27T08:43:52;10.15;;;3.92;;
24389;SDS011;12510;56.468;-3.004;2023-04-27T08:46:19;8.95;;;3.90;;
24389;SDS011;12510;56.468;-3.004;2023-04-27T08:48:48;10.63;;;4.82;;
24389;SDS011;12510;56.468;-3.004;2023-04-27T08:51:16;8.05;;;3.70;;
24389;SDS011;12510;56.468;-3.004;2023-04-27T08:53:49;10.18;;;4.10;;
24389;SDS011;12510;56.468;-3.004;2023-04-27T08:56:18;8.13;;;4.47;;
24389;SDS011;12510;56.468;-3.004;2023-04-27T08:58:45;9.65;;;4.65;;
24389;SDS011;12510;56.468;-3.004;2023-04-27T09:01:11;9.45;;;4.00;;
24389;SDS011;12510;56.468;-3.004;2023-04-27T09:03:38;7.15;;;3.78;;
24389;SDS011;12510;56.468;-3.004;2023-04-27T09:06:04;11.35;;;4.90;;
24389;SDS011;12510;56.468;-3.004;2023-04-27T09:08:44;11.85;;;4.28;;
24389;SDS011;12510;56.468;-3.004;2023-04-27T09:11:12;10.88;;;3.85;;
24389;SDS011;12510;56.468;-3.004;2023-04-27T09:13:40;14.73;;;4.82;;
24389;SDS011;12510;56.468;-3.004;2023-04-27T09:18:40;11.07;;;4.57;;
24389;SDS011;12510;56.468;-3.004;2023-04-27T09:21:08;9.32;;;4.90;;
24389;SDS011;12510;56.468;-3.004;2023-04-27T09:23:35;11.32;;;4.93;;
24389;SDS011;12510;56.468;-3.004;2023-04-27T09:26:06;13.95;;;4.88;;
24389;SDS011;12510;56.468;-3.004;2023-04-27T09:28:36;11.90;;;4.65;;
24389;SDS011;12510;56.468;-3.004;2023-04-27T09:31:04;11.23;;;5.32;;
24389;SDS011;12510;56.468;-3.004;2023-04-27T09:33:34;11.20;;;5.63;;
24389;SDS011;12510;56.468;-3.004;2023-04-27T09:36:02;12.65;;;5.43;;
24389;SDS011;12510;56.468;-3.004;2023-04-27T09:38:30;9.48;;;4.50;;
24389;SDS011;12510;56.468;-3.004;2023-04-27T09:40:56;8.73;;;5.05;;
24389;SDS011;12510;56.468;-3.004;2023-04-27T09:43:23;8.23;;;4.95;;
24389;SDS011;12510;56.468;-3.004;2023-04-27T09:45:52;7.10;;;4.72;;
24389;SDS011;12510;56.468;-3.004;2023-04-27T09:48:20;13.02;;;6.15;;
24389;SDS011;12510;56.468;-3.004;2023-04-27T09:50:48;9.95;;;6.15;;
24389;SDS011;12510;56.468;-3.004;2023-04-27T09:53:19;10.00;;;5.38;;
24389;SDS011;12510;56.468;-3.004;2023-04-27T09:56:09;7.00;;;4.75;;
24389;SDS011;12510;56.468;-3.004;2023-04-27T09:58:58;13.05;;;5.22;;
24389;SDS011;12510;56.468;-3.004;2023-04-27T10:01:40;11.68;;;5.97;;
24389;SDS011;12510;56.468;-3.004;2023-04-27T10:07:11;12.90;;;6.38;;
24389;SDS011;12510;56.468;-3.004;2023-04-27T10:09:40;12.45;;;5.82;;
24389;SDS011;12510;56.468;-3.004;2023-04-27T10:12:27;12.25;;;6.30;;
24389;SDS011;12510;56.468;-3.004;2023-04-27T10:17:32;9.45;;;6.53;;
24389;SDS011;12510;56.468;-3.004;2023-04-27T10:20:01;13.18;;;6.05;;
24389;SDS011;12510;56.468;-3.004;2023-04-27T10:23:04;12.57;;;6.35;;
24389;SDS011;12510;56.468;-3.004;2023-04-27T10:25:25;14.43;;;6.30;;
24389;SDS011;12510;56.468;-3.004;2023-04-27T10:28:01;14.25;;;6.07;;
24389;SDS011;12510;56.468;-3.004;2023-04-27T10:30:32;15.43;;;6.75;;
24389;SDS011;12510;56.468;-3.004;2023-04-27T10:33:03;11.80;;;5.03;;
24389;SDS011;12510;56.468;-3.004;2023-04-27T10:35:35;10.70;;;5.65;;
24389;SDS011;12510;56.468;-3.004;2023-04-27T10:38:54;14.95;;;6.38;;
24389;SDS011;12510;56.468;-3.004;2023-04-27T10:40:58;12.93;;;7.03;;
24389;SDS011;12510;56.468;-3.004;2023-04-27T10:43:31;11.20;;;6.25;;
24389;SDS011;12510;56.468;-3.004;2023-04-27T10:46:06;10.15;;;6.78;;
24389;SDS011;12510;56.468;-3.004;2023-04-27T10:48:33;8.85;;;5.35;;
24389;SDS011;12510;56.468;-3.004;2023-04-27T10:51:00;8.20;;;5.95;;
24389;SDS011;12510;56.468;-3.004;2023-04-27T10:53:32;9.45;;;6.00;;
24389;SDS011;12510;56.468;-3.004;2023-04-27T10:56:00;11.20;;;6.13;;
24389;SDS011;12510;56.468;-3.004;2023-04-27T10:58:27;11.20;;;6.50;;
24389;SDS011;12510;56.468;-3.004;2023-04-27T11:00:54;12.35;;;5.82;;
24389;SDS011;12510;56.468;-3.004;2023-04-27T11:03:21;15.15;;;6.72;;
24389;SDS011;12510;56.468;-3.004;2023-04-27T11:05:50;8.75;;;6.00;;
24389;SDS011;12510;56.468;-3.004;2023-04-27T11:08:27;10.15;;;6.30;;
24389;SDS011;12510;56.468;-3.004;2023-04-27T11:10:55;10.70;;;6.32;;
24389;SDS011;12510;56.468;-3.004;2023-04-27T11:13:23;8.43;;;6.18;;
24389;SDS011;12510;56.468;-3.004;2023-04-27T11:15:51;10.57;;;5.55;;
24389;SDS011;12510;56.468;-3.004;2023-04-27T11:18:28;11.52;;;6.45;;
24389;SDS011;12510;56.468;-3.004;2023-04-27T11:28:44;15.88;;;6.03;;
24389;SDS011;12510;56.468;-3.004;2023-04-27T11:31:22;13.88;;;6.20;;
24389;SDS011;12510;56.468;-3.004;2023-04-27T11:33:48;14.32;;;6.60;;
24389;SDS011;12510;56.468;-3.004;2023-04-27T11:36:16;12.38;;;6.45;;
24389;SDS011;12510;56.468;-3.004;2023-04-27T11:38:44;12.85;;;6.30;;
24389;SDS011;12510;56.468;-3.004;2023-04-27T11:41:11;16.10;;;8.50;;
24389;SDS011;12510;56.468;-3.004;2023-04-27T11:43:41;12.98;;;7.63;;
24389;SDS011;12510;56.468;-3.004;2023-04-27T11:46:12;14.93;;;8.00;;
24389;SDS011;12510;56.468;-3.004;2023-04-27T11:48:38;13.40;;;7.40;;
24389;SDS011;12510;56.468;-3.004;2023-04-27T11:51:06;12.52;;;7.47;;
24389;SDS011;12510;56.468;-3.004;2023-04-27T11:53:35;12.93;;;7.53;;
24389;SDS011;12510;56.468;-3.004;2023-04-27T11:56:04;13.90;;;8.02;;
24389;SDS011;12510;56.468;-3.004;2023-04-27T11:58:33;11.13;;;6.90;;
24389;SDS011;12510;56.468;-3.004;2023-04-27T12:01:01;12.80;;;6.97;;
24389;SDS011;12510;56.468;-3.004;2023-04-27T12:03:29;12.13;;;7.70;;
24389;SDS011;12510;56.468;-3.004;2023-04-27T12:05:55;13.95;;;7.80;;
24389;SDS011;12510;56.468;-3.004;2023-04-27T12:08:22;13.85;;;8.20;;
24389;SDS011;12510;56.468;-3.004;2023-04-27T12:10:49;10.95;;;7.47;;
24389;SDS011;12510;56.468;-3.004;2023-04-27T12:13:16;15.43;;;7.38;;
24389;SDS011;12510;56.468;-3.004;2023-04-27T12:15:42;15.10;;;8.80;;
24389;SDS011;12510;56.468;-3.004;2023-04-27T12:18:09;15.30;;;8.10;;
24389;SDS011;12510;56.468;-3.004;2023-04-27T12:20:36;12.73;;;7.20;;
24389;SDS011;12510;56.468;-3.004;2023-04-27T12:23:02;12.50;;;8.63;;
24389;SDS011;12510;56.468;-3.004;2023-04-27T12:25:29;21.92;;;9.20;;
24389;SDS011;12510;56.468;-3.004;2023-04-27T12:27:55;19.70;;;9.68;;
24389;SDS011;12510;56.468;-3.004;2023-04-27T12:30:22;14.02;;;9.40;;
24389;SDS011;12510;56.468;-3.004;2023-04-27T12:32:48;19.45;;;9.85;;
24389;SDS011;12510;56.468;-3.004;2023-04-27T12:35:15;15.45;;;9.10;;
24389;SDS011;12510;56.468;-3.004;2023-04-27T12:37:42;15.57;;;8.95;;
24389;SDS011;12510;56.468;-3.004;2023-04-27T12:40:08;19.23;;;10.45;;
24389;SDS011;12510;56.468;-3.004;2023-04-27T12:42:35;19.33;;;9.98;;
24389;SDS011;12510;56.468;-3.004;2023-04-27T12:45:01;16.88;;;9.68;;
24389;SDS011;12510;56.468;-3.004;2023-04-27T12:47:30;16.05;;;10.35;;
24389;SDS011;12510;56.468;-3.004;2023-04-27T12:49:59;16.27;;;9.75;;
24389;SDS011;12510;56.468;-3.004;2023-04-27T12:52:26;19.17;;;12.23;;
24389;SDS011;12510;56.468;-3.004;2023-04-27T12:54:52;20.35;;;11.93;;
24389;SDS011;12510;56.468;-3.004;2023-04-27T12:57:22;21.33;;;11.48;;
24389;SDS011;12510;56.468;-3.004;2023-04-27T12:59:48;17.35;;;10.48;;
24389;SDS011;12510;56.468;-3.004;2023-04-27T13:02:16;16.83;;;11.70;;
24389;SDS011;12510;56.468;-3.004;2023-04-27T13:04:42;16.45;;;10.77;;
24389;SDS011;12510;56.468;-3.004;2023-04-27T13:07:09;14.68;;;11.25;;
24389;SDS011;12510;56.468;-3.004;2023-04-27T13:09:35;16.77;;;11.35;;
24389;SDS011;12510;56.468;-3.004;2023-04-27T13:12:02;17.73;;;10.30;;
24389;SDS011;12510;56.468;-3.004;2023-04-27T13:14:28;18.10;;;11.77;;
24389;SDS011;12510;56.468;-3.004;2023-04-27T13:16:57;26.40;;;11.98;;
24389;SDS011;12510;56.468;-3.004;2023-04-27T13:19:23;21.58;;;12.15;;
24389;SDS011;12510;56.468;-3.004;2023-04-27T13:21:50;16.70;;;11.23;;
24389;SDS011;12510;56.468;-3.004;2023-04-27T13:24:16;16.30;;;11.27;;
24389;SDS011;12510;56.468;-3.004;2023-04-27T13:26:43;18.67;;;11.45;;
24389;SDS011;12510;56.468;-3.004;2023-04-27T13:29:09;18.35;;;11.02;;
24389;SDS011;12510;56.468;-3.004;2023-04-27T13:31:36;15.68;;;11.20;;
24389;SDS011;12510;56.468;-3.004;2023-04-27T13:34:02;16.98;;;11.63;;
24389;SDS011;12510;56.468;-3.004;2023-04-27T13:36:29;20.45;;;12.45;;
24389;SDS011;12510;56.468;-3.004;2023-04-27T13:38:56;19.88;;;11.82;;
24389;SDS011;12510;56.468;-3.004;2023-04-27T13:41:22;17.52;;;12.23;;
24389;SDS011;12510;56.468;-3.004;2023-04-27T13:43:49;18.58;;;13.02;;
24389;SDS011;12510;56.468;-3.004;2023-04-27T13:46:15;20.55;;;11.80;;
24389;SDS011;12510;56.468;-3.004;2023-04-27T13:48:41;16.02;;;12.15;;
24389;SDS011;12510;56.468;-3.004;2023-04-27T13:51:08;21.42;;;13.20;;
24389;SDS011;12510;56.468;-3.004;2023-04-27T13:53:35;20.50;;;12.60;;
24389;SDS011;12510;56.468;-3.004;2023-04-27T13:56:01;22.83;;;12.50;;
24389;SDS011;12510;56.468;-3.004;2023-04-27T13:58:28;18.73;;;12.40;;
24389;SDS011;12510;56.468;-3.004;2023-04-27T14:00:55;18.05;;;12.90;;
24389;SDS011;12510;56.468;-3.004;2023-04-27T14:03:22;18.52;;;12.35;;
24389;SDS011;12510;56.468;-3.004;2023-04-27T14:05:49;22.30;;;14.10;;
24389;SDS011;12510;56.468;-3.004;2023-04-27T14:08:16;21.65;;;12.48;;
24389;SDS011;12510;56.468;-3.004;2023-04-27T14:10:43;17.92;;;12.27;;
24389;SDS011;12510;56.468;-3.004;2023-04-27T14:13:10;18.95;;;12.35;;
24389;SDS011;12510;56.468;-3.004;2023-04-27T14:15:37;16.77;;;12.60;;
24389;SDS011;12510;56.468;-3.004;2023-04-27T14:18:04;19.48;;;12.65;;
24389;SDS011;12510;56.468;-3.004;2023-04-27T14:20:32;19.10;;;12.65;;
24389;SDS011;12510;56.468;-3.004;2023-04-27T14:23:00;20.77;;;14.15;;
24389;SDS011;12510;56.468;-3.004;2023-04-27T14:25:27;23.92;;;14.38;;
24389;SDS011;12510;56.468;-3.004;2023-04-27T14:27:58;24.23;;;14.75;;
24389;SDS011;12510;56.468;-3.004;2023-04-27T14:30:26;19.67;;;13.00;;
24389;SDS011;12510;56.468;-3.004;2023-04-27T14:32:52;19.15;;;13.65;;
24389;SDS011;12510;56.468;-3.004;2023-04-27T14:35:19;19.23;;;13.40;;
24389;SDS011;12510;56.468;-3.004;2023-04-27T14:37:46;21.38;;;12.90;;
24389;SDS011;12510;56.468;-3.004;2023-04-27T14:40:12;20.05;;;14.02;;
24389;SDS011;12510;56.468;-3.004;2023-04-27T14:42:39;25.45;;;14.55;;
24389;SDS011;12510;56.468;-3.004;2023-04-27T14:45:05;28.48;;;15.68;;
24389;SDS011;12510;56.468;-3.004;2023-04-27T14:47:32;21.52;;;13.43;;
24389;SDS011;12510;56.468;-3.004;2023-04-27T14:49:59;25.10;;;15.02;;